Time;durP1;ratioP1;P1;durP2;ratioP2;P2;SDS_P1;SDS_P2;PMS_P1;PMS_P2;Temp;Humidity;BMP_temperature;BMP_pressure;BME280_temperature;BME280_humidity;BME280_pressure;Samples;Min_cycle;Max_cycle;Signal;HPM_P1;HPM_P2
2022/02/20 00:00:33;;;;;;;;;;;;;;;-147.53;100.00;59759.91;5063322;28;19916;-91
2022/02/20 00:02:58;;;;;;;;;;;;;;;-147.53;100.00;59759.91;5062999;28;19939;-90
2022/02/20 00:05:24;;;;;;;;;;;;;;;-147.53;100.00;59759.91;5067200;28;19917;-90
2022/02/20 00:07:49;;;;;;;;;;;;;;;-147.53;100.00;59759.91;5063042;28;19924;-91
2022/02/20 00:10:14;;;;;;;;;;;;;;;-147.53;100.00;59759.91;5063403;28;20456;-88
2022/02/20 00:12:39;;;;;;;;;;;;;;;-147.53;100.00;59759.91;5065153;28;19937;-90
2022/02/20 00:15:11;;;;;;;;;;;;;;;-147.53;100.00;59759.91;5292817;22;19985;-88
2022/02/20 00:17:36;;;;;;;;;;;;;;;-147.53;100.00;59759.91;5085805;28;19931;-88
2022/02/20 00:20:02;;;;;;;;;;;;;;;-147.53;100.00;59759.91;5067617;28;19917;-88
2022/02/20 00:22:27;;;;;;;;;;;;;;;-147.53;100.00;59759.91;5083976;28;19916;-89
2022/02/20 00:24:55;;;;;;;;;;;;;;;-147.53;100.00;59759.91;5064418;28;19975;-89
2022/02/20 00:27:21;;;;;;;;;;;;;;;-147.53;100.00;59759.91;5064327;28;19923;-89
2022/02/20 00:29:46;;;;;;;;;;;;;;;-147.53;100.00;59759.91;5066503;28;19994;-89
2022/02/20 00:32:13;;;;;;;;;;;;;;;-147.53;100.00;59759.91;5066424;28;19936;-89
2022/02/20 00:34:39;;;;;;;;;;;;;;;-147.53;100.00;59759.91;5081709;28;19955;-88
2022/02/20 00:37:04;;;;;;;;;;;;;;;-147.53;100.00;59759.91;5064030;28;19923;-89
2022/02/20 00:39:31;;;;;;;;;;;;;;;-147.53;100.00;59759.91;5082957;28;19923;-92
2022/02/20 00:41:58;;;;;;;;;;;;;;;-147.53;100.00;59759.91;5062039;28;20313;-93
2022/02/20 00:44:23;;;;;;;;;;;;;;;-147.53;100.00;59759.91;5066349;28;19928;-89
2022/02/20 00:46:49;;;;;;;;;;;;;;;-147.53;100.00;59759.91;5085953;28;19920;-92
2022/02/20 00:49:14;;;;;;;;;;;;;;;-147.53;100.00;59759.91;5068650;28;20046;-88
2022/02/20 00:51:40;;;;;;;;;;;;;;;-147.53;100.00;59759.91;5067353;28;20393;-90
2022/02/20 00:54:08;;;;;;;;;;;;;;;-147.53;100.00;59759.91;5067206;28;19912;-90
2022/02/20 00:56:35;;;;;;;;;;;;;;;-147.53;100.00;59759.91;5067686;28;19992;-89
2022/02/20 00:59:02;;;;;;;;;;;;;;;-147.53;100.00;59759.91;5081131;28;19916;-91
2022/02/20 01:01:28;;;;;;;;;;;;;;;-147.53;100.00;59759.91;5061198;28;19917;-90
2022/02/20 01:03:53;;;;;;;;;;;;;;;-147.53;100.00;59759.91;5060510;28;20301;-90
2022/02/20 01:06:18;;;;;;;;;;;;;;;-147.53;100.00;59759.91;5061434;28;20316;-92
2022/02/20 01:08:44;;;;;;;;;;;;;;;-147.53;100.00;59759.91;5064261;28;19916;-85
2022/02/20 01:11:09;;;;;;;;;;;;;;;-147.53;100.00;59759.91;5081498;28;19938;-87
2022/02/20 01:13:34;;;;;;;;;;;;;;;-147.53;100.00;59759.91;5064187;28;20374;-86
2022/02/20 01:16:00;;;;;;;;;;;;;;;-147.53;100.00;59759.91;5061306;28;19928;-85
2022/02/20 01:18:25;;;;;;;;;;;;;;;-147.53;100.00;59759.91;5061702;28;19950;-85
2022/02/20 01:20:50;;;;;;;;;;;;;;;-147.53;100.00;59759.91;5063877;28;19916;-86
2022/02/20 01:23:15;;;;;;;;;;;;;;;-147.53;100.00;59759.91;5060940;28;19921;-87
2022/02/20 01:25:41;;;;;;;;;;;;;;;-147.53;100.00;59759.91;5060619;28;20404;-86
2022/02/20 01:28:06;;;;;;;;;;;;;;;-147.53;100.00;59759.91;5060680;28;19923;-85
2022/02/20 01:30:31;;;;;;;;;;;;;;;-147.53;100.00;59759.91;5065392;28;20011;-84
2022/02/20 01:32:56;;;;;;;;;;;;;;;-147.53;100.00;59759.91;5065337;28;19923;-85
2022/02/20 01:35:22;;;;;;;;;;;;;;;-147.53;100.00;59759.91;5066141;28;19923;-85
2022/02/20 01:37:47;;;;;;;;;;;;;;;-147.53;100.00;59759.91;5065310;28;20289;-86
2022/02/20 01:40:15;;;;;;;;;;;;;;;-147.53;100.00;59759.91;5053693;28;19921;-86
2022/02/20 01:42:40;;;;;;;;;;;;;;;-147.53;100.00;59759.91;5045676;28;19925;-86
2022/02/20 01:45:10;;;;;;;;;;;;;;;-147.53;100.00;59759.91;5042997;28;20370;-86
2022/02/20 01:47:36;;;;;;;;;;;;;;;-147.53;100.00;59759.91;5041476;28;19971;-84
2022/02/20 01:50:01;;;;;;;;;;;;;;;-147.53;100.00;59759.91;5045560;28;19923;-86
2022/02/20 01:52:27;;;;;;;;;;;;;;;-147.53;100.00;59759.91;5045557;28;19916;-85
2022/02/20 01:54:52;;;;;;;;;;;;;;;-147.53;100.00;59759.91;5045499;28;19917;-86
2022/02/20 01:57:18;;;;;;;;;;;;;;;-147.53;100.00;59759.91;5045833;28;19939;-85
2022/02/20 01:59:43;;;;;;;;;;;;;;;-147.53;100.00;59759.91;5045573;28;19920;-85
2022/02/20 02:02:09;;;;;;;;;;;;;;;-147.53;100.00;59759.91;5045071;28;19952;-86
2022/02/20 02:04:34;;;;;;;;;;;;;;;-147.53;100.00;59759.91;5045536;28;19924;-86
2022/02/20 02:06:59;;;;;;;;;;;;;;;-147.53;100.00;59759.91;5045326;28;19935;-86
2022/02/20 02:09:25;;;;;;;;;;;;;;;-147.53;100.00;59759.91;5045368;28;20329;-86
2022/02/20 02:11:50;;;;;;;;;;;;;;;-147.53;100.00;59759.91;5045439;28;19964;-86
2022/02/20 02:14:15;;;;;;;;;;;;;;;-147.53;100.00;59759.91;5045247;28;19968;-85
2022/02/20 02:16:41;;;;;;;;;;;;;;;-147.53;100.00;59759.91;5045266;28;19928;-85
2022/02/20 02:19:06;;;;;;;;;;;;;;;-147.53;100.00;59759.91;5045392;28;19917;-86
2022/02/20 02:21:31;;;;;;;;;;;;;;;-147.53;100.00;59759.91;5045048;28;19912;-85
2022/02/20 02:23:56;;;;;;;;;;;;;;;-147.53;100.00;59759.91;5044966;28;20389;-86
2022/02/20 02:26:23;;;;;;;;;;;;;;;-147.53;100.00;59759.91;5044345;28;19917;-87
2022/02/20 02:28:48;;;;;;;;;;;;;;;-147.53;100.00;59759.91;5043674;28;20387;-87
2022/02/20 02:31:14;;;;;;;;;;;;;;;-147.53;100.00;59759.91;5044311;28;20019;-85
2022/02/20 02:33:39;;;;;;;;;;;;;;;-147.53;100.00;59759.91;5061836;28;19917;-87
2022/02/20 02:36:05;;;;;;;;;;;;;;;-147.53;100.00;59759.91;5044052;28;19985;-86
2022/02/20 02:38:31;;;;;;;;;;;;;;;-147.53;100.00;59759.91;5061734;28;20005;-84
2022/02/20 02:40:57;;;;;;;;;;;;;;;-147.53;100.00;59759.91;5043932;28;20286;-87
2022/02/20 02:43:23;;;;;;;;;;;;;;;-147.53;100.00;59759.91;5043440;28;19952;-87
2022/02/20 02:45:48;;;;;;;;;;;;;;;-147.53;100.00;59759.91;5061602;28;19975;-88
2022/02/20 02:48:13;;;;;;;;;;;;;;;-147.53;100.00;59759.91;5061745;28;19925;-85
2022/02/20 02:50:38;;;;;;;;;;;;;;;-147.53;100.00;59759.91;5043663;28;20335;-86
2022/02/20 02:53:05;;;;;;;;;;;;;;;-147.53;100.00;59759.91;5043528;28;19913;-87
2022/02/20 02:55:30;;;;;;;;;;;;;;;-147.53;100.00;59759.91;5061463;28;19960;-86
2022/02/20 02:57:56;;;;;;;;;;;;;;;-147.53;100.00;59759.91;5043572;28;19924;-85
2022/02/20 03:00:21;;;;;;;;;;;;;;;-147.53;100.00;59759.91;5043230;28;20386;-85
2022/02/20 03:02:46;;;;;;;;;;;;;;;-147.53;100.00;59759.91;5043368;28;19917;-85
2022/02/20 03:05:11;;;;;;;;;;;;;;;-147.53;100.00;59759.91;5043183;28;19913;-85
2022/02/20 03:07:37;;;;;;;;;;;;;;;-147.53;100.00;59759.91;5042980;28;19916;-87
2022/02/20 03:10:02;;;;;;;;;;;;;;;-147.53;100.00;59759.91;5061090;28;19917;-85
2022/02/20 03:12:27;;;;;;;;;;;;;;;-147.53;100.00;59759.91;5043617;28;19917;-85
2022/02/20 03:14:53;;;;;;;;;;;;;;;-147.53;100.00;59759.91;5043423;28;20562;-86
2022/02/20 03:17:18;;;;;;;;;;;;;;;-147.53;100.00;59759.91;5042853;28;19920;-87
2022/02/20 03:19:43;;;;;;;;;;;;;;;-147.53;100.00;59759.91;5043032;28;19920;-86
2022/02/20 03:22:08;;;;;;;;;;;;;;;-147.53;100.00;59759.91;5043062;28;19917;-86
2022/02/20 03:24:34;;;;;;;;;;;;;;;-147.53;100.00;59759.91;5043001;28;19939;-85
2022/02/20 03:26:59;;;;;;;;;;;;;;;-147.53;100.00;59759.91;5060830;28;19960;-85
2022/02/20 03:29:24;;;;;;;;;;;;;;;-147.53;100.00;59759.91;5043458;28;19921;-87
2022/02/20 03:31:49;;;;;;;;;;;;;;;-147.53;100.00;59759.91;5043091;28;19916;-86
2022/02/20 03:34:14;;;;;;;;;;;;;;;-147.53;100.00;59759.91;5043040;28;19917;-87
2022/02/20 03:36:40;;;;;;;;;;;;;;;-147.53;100.00;59759.91;5042555;28;20050;-87
2022/02/20 03:39:05;;;;;;;;;;;;;;;-147.53;100.00;59759.91;5042981;28;19917;-87
2022/02/20 03:41:30;;;;;;;;;;;;;;;-147.53;100.00;59759.91;5042588;28;19980;-87
2022/02/20 03:43:55;;;;;;;;;;;;;;;-147.53;100.00;59759.91;5060144;28;19913;-85
2022/02/20 03:46:21;;;;;;;;;;;;;;;-147.53;100.00;59759.91;5043414;28;19974;-87
2022/02/20 03:48:46;;;;;;;;;;;;;;;-147.53;100.00;59759.91;5043614;28;19987;-85
2022/02/20 03:51:11;;;;;;;;;;;;;;;-147.53;100.00;59759.91;5043209;28;20417;-87
2022/02/20 03:53:36;;;;;;;;;;;;;;;-147.53;100.00;59759.91;5061099;28;19971;-86
2022/02/20 03:56:02;;;;;;;;;;;;;;;-147.53;100.00;59759.91;5061362;28;20382;-84
2022/02/20 03:58:27;;;;;;;;;;;;;;;-147.53;100.00;59759.91;5061703;28;19917;-87
2022/02/20 04:00:52;;;;;;;;;;;;;;;-147.53;100.00;59759.91;5061431;28;20358;-86
2022/02/20 04:03:17;;;;;;;;;;;;;;;-147.53;100.00;59759.91;5043207;28;19917;-87
2022/02/20 04:05:43;;;;;;;;;;;;;;;-147.53;100.00;59759.91;5061078;28;19916;-85
2022/02/20 04:08:08;;;;;;;;;;;;;;;-147.53;100.00;59759.91;5042918;28;19952;-86
2022/02/20 04:10:34;;;;;;;;;;;;;;;-147.53;100.00;59759.91;5060293;28;19943;-87
2022/02/20 04:12:59;;;;;;;;;;;;;;;-147.53;100.00;59759.91;5043028;28;19917;-85
2022/02/20 04:15:25;;;;;;;;;;;;;;;-147.53;100.00;59759.91;5060792;28;19947;-86
2022/02/20 04:17:50;;;;;;;;;;;;;;;-147.53;100.00;59759.91;5060732;28;19917;-87
2022/02/20 04:20:16;;;;;;;;;;;;;;;-147.53;100.00;59759.91;5042871;28;20015;-87
2022/02/20 04:22:43;;;;;;;;;;;;;;;-147.53;100.00;59759.91;5060707;28;19960;-84
2022/02/20 04:25:09;;;;;;;;;;;;;;;-147.53;100.00;59759.91;5042816;28;19982;-85
2022/02/20 04:27:35;;;;;;;;;;;;;;;-147.53;100.00;59759.91;5060331;28;19951;-85
2022/02/20 04:30:00;;;;;;;;;;;;;;;-147.53;100.00;59759.91;5042055;28;19924;-85
2022/02/20 04:32:25;;;;;;;;;;;;;;;-147.53;100.00;59759.91;5060114;28;19943;-84
2022/02/20 04:34:50;;;;;;;;;;;;;;;-147.53;100.00;59759.91;5060231;28;19962;-85
2022/02/20 04:37:16;;;;;;;;;;;;;;;-147.53;100.00;59759.91;5041557;28;20019;-84
2022/02/20 04:39:41;;;;;;;;;;;;;;;-147.53;100.00;59759.91;5041437;28;20003;-85
2022/02/20 04:42:06;;;;;;;;;;;;;;;-147.53;100.00;59759.91;5041155;28;19917;-85
2022/02/20 04:44:31;;;;;;;;;;;;;;;-147.53;100.00;59759.91;5040912;28;19925;-84
2022/02/20 04:46:58;;;;;;;;;;;;;;;-147.53;100.00;59759.91;5059327;28;19917;-85
2022/02/20 04:49:23;;;;;;;;;;;;;;;-147.53;100.00;59759.91;5040644;28;20362;-85
2022/02/20 04:51:49;;;;;;;;;;;;;;;-147.53;100.00;59759.91;5058015;28;19920;-84
2022/02/20 04:54:15;;;;;;;;;;;;;;;-147.53;100.00;59759.91;5039635;28;20007;-83
2022/02/20 04:56:42;;;;;;;;;;;;;;;-147.53;100.00;59759.91;5039637;28;19917;-84
2022/02/20 04:59:10;;;;;;;;;;;;;;;-147.53;100.00;59759.91;5039574;28;22075;-84
2022/02/20 05:01:35;;;;;;;;;;;;;;;-147.53;100.00;59759.91;5058624;28;19917;-85
2022/02/20 05:04:00;;;;;;;;;;;;;;;-147.53;100.00;59759.91;5040838;28;19924;-85
2022/02/20 05:06:27;;;;;;;;;;;;;;;-147.53;100.00;59759.91;5040578;28;19956;-85
2022/02/20 05:08:53;;;;;;;;;;;;;;;-147.53;100.00;59759.91;5040762;28;19917;-85
2022/02/20 05:11:18;;;;;;;;;;;;;;;-147.53;100.00;59759.91;5040306;28;19924;-84
2022/02/20 05:13:44;;;;;;;;;;;;;;;-147.53;100.00;59759.91;5040310;28;19920;-85
2022/02/20 05:16:09;;;;;;;;;;;;;;;-147.53;100.00;59759.91;5039841;28;20333;-84
2022/02/20 05:18:34;;;;;;;;;;;;;;;-147.53;100.00;59759.91;5058438;28;20014;-84
2022/02/20 05:20:59;;;;;;;;;;;;;;;-147.53;100.00;59759.91;5040000;28;19960;-84
2022/02/20 05:23:25;;;;;;;;;;;;;;;-147.53;100.00;59759.91;5039516;28;20366;-85
2022/02/20 05:25:51;;;;;;;;;;;;;;;-147.53;100.00;59759.91;5057669;28;19976;-84
2022/02/20 05:28:16;;;;;;;;;;;;;;;-147.53;100.00;59759.91;5039653;28;19917;-84
2022/02/20 05:30:42;;;;;;;;;;;;;;;-147.53;100.00;59759.91;5039757;28;20333;-84
2022/02/20 05:33:07;;;;;;;;;;;;;;;-147.53;100.00;59759.91;5057551;28;19916;-83
2022/02/20 05:35:32;;;;;;;;;;;;;;;-147.53;100.00;59759.91;5039448;28;19921;-84
2022/02/20 05:37:57;;;;;;;;;;;;;;;-147.53;100.00;59759.91;5039183;28;19917;-85
2022/02/20 05:40:23;;;;;;;;;;;;;;;-147.53;100.00;59759.91;5057202;28;19924;-83
2022/02/20 05:42:48;;;;;;;;;;;;;;;-147.53;100.00;59759.91;5038758;28;19917;-84
2022/02/20 05:45:14;;;;;;;;;;;;;;;-147.53;100.00;59759.91;5038961;28;19924;-83
2022/02/20 05:47:39;;;;;;;;;;;;;;;-147.53;100.00;59759.91;5039081;28;19925;-83
2022/02/20 05:50:05;;;;;;;;;;;;;;;-147.53;100.00;59759.91;5039277;28;20370;-84
2022/02/20 05:52:31;;;;;;;;;;;;;;;-147.53;100.00;59759.91;5039217;28;19955;-83
2022/02/20 05:54:56;;;;;;;;;;;;;;;-147.53;100.00;59759.91;5039660;28;19912;-83
2022/02/20 05:57:21;;;;;;;;;;;;;;;-147.53;100.00;59759.91;5039023;28;20278;-83
2022/02/20 05:59:47;;;;;;;;;;;;;;;-147.53;100.00;59759.91;5038791;28;19924;-83
2022/02/20 06:02:12;;;;;;;;;;;;;;;-147.53;100.00;59759.91;5039189;28;19917;-84
2022/02/20 06:04:37;;;;;;;;;;;;;;;-147.53;100.00;59759.91;5039299;28;19947;-84
2022/02/20 06:07:03;;;;;;;;;;;;;;;-147.53;100.00;59759.91;5039410;28;20363;-83
2022/02/20 06:09:28;;;;;;;;;;;;;;;-147.53;100.00;59759.91;5039619;28;19921;-83
2022/02/20 06:11:54;;;;;;;;;;;;;;;-147.53;100.00;59759.91;5057285;28;19920;-84
2022/02/20 06:14:19;;;;;;;;;;;;;;;-147.53;100.00;59759.91;5039960;28;19920;-83
2022/02/20 06:16:44;;;;;;;;;;;;;;;-147.53;100.00;59759.91;5057095;28;19931;-83
2022/02/20 06:19:09;;;;;;;;;;;;;;;-147.53;100.00;59759.91;5039218;28;19923;-84
2022/02/20 06:21:34;;;;;;;;;;;;;;;-147.53;100.00;59759.91;5056758;28;19924;-83
2022/02/20 06:24:00;;;;;;;;;;;;;;;-147.53;100.00;59759.91;5038963;28;19955;-84
2022/02/20 06:26:25;;;;;;;;;;;;;;;-147.53;100.00;59759.91;5038664;28;19917;-83
2022/02/20 06:28:50;;;;;;;;;;;;;;;-147.53;100.00;59759.91;5038684;28;19952;-83
2022/02/20 06:31:15;;;;;;;;;;;;;;;-147.53;100.00;59759.91;5038828;28;19917;-84
2022/02/20 06:33:41;;;;;;;;;;;;;;;-147.53;100.00;59759.91;5038838;28;19917;-83
2022/02/20 06:36:09;;;;;;;;;;;;;;;-147.53;100.00;59759.91;5060569;28;20365;-84
2022/02/20 06:38:34;;;;;;;;;;;;;;;-147.53;100.00;59759.91;5042648;28;20113;-83
2022/02/20 06:40:59;;;;;;;;;;;;;;;-147.53;100.00;59759.91;5042149;28;19984;-83
2022/02/20 06:43:25;;;;;;;;;;;;;;;-147.53;100.00;59759.91;5042374;28;20373;-83
2022/02/20 06:45:50;;;;;;;;;;;;;;;-147.53;100.00;59759.91;5059667;28;19921;-83
2022/02/20 06:48:15;;;;;;;;;;;;;;;-147.53;100.00;59759.91;5041006;28;20070;-83
2022/02/20 06:50:41;;;;;;;;;;;;;;;-147.53;100.00;59759.91;5041066;28;20012;-83
2022/02/20 06:53:06;;;;;;;;;;;;;;;-147.53;100.00;59759.91;5040979;28;19917;-83
2022/02/20 06:55:32;;;;;;;;;;;;;;;-147.53;100.00;59759.91;5040671;28;19960;-83
2022/02/20 06:57:58;;;;;;;;;;;;;;;-147.53;100.00;59759.91;5041111;28;19913;-84
2022/02/20 07:00:24;;;;;;;;;;;;;;;-147.53;100.00;59759.91;5041083;28;19936;-82
2022/02/20 07:02:49;;;;;;;;;;;;;;;-147.53;100.00;59759.91;5039402;28;19916;-83
2022/02/20 07:05:14;;;;;;;;;;;;;;;-147.53;100.00;59759.91;5057452;28;19917;-83
2022/02/20 07:07:40;;;;;;;;;;;;;;;-147.53;100.00;59759.91;5039837;28;19939;-83
2022/02/20 07:10:07;;;;;;;;;;;;;;;-147.53;100.00;59759.91;5040047;28;19920;-83
2022/02/20 07:12:32;;;;;;;;;;;;;;;-147.53;100.00;59759.91;5040128;28;19929;-84
2022/02/20 07:14:58;;;;;;;;;;;;;;;-147.53;100.00;59759.91;5041127;28;19920;-83
2022/02/20 07:17:23;;;;;;;;;;;;;;;-147.53;100.00;59759.91;5042379;28;19925;-83
2022/02/20 07:19:48;;;;;;;;;;;;;;;-147.53;100.00;59759.91;5059587;28;20007;-83
2022/02/20 07:22:13;;;;;;;;;;;;;;;-147.53;100.00;59759.91;5040203;28;19939;-83
2022/02/20 07:24:39;;;;;;;;;;;;;;;-147.53;100.00;59759.91;5055483;28;19962;-84
2022/02/20 07:27:04;;;;;;;;;;;;;;;-147.53;100.00;59759.91;5037552;28;19950;-85
2022/02/20 07:29:31;;;;;;;;;;;;;;;-147.53;100.00;59759.91;5037622;28;19916;-84
2022/02/20 07:31:56;;;;;;;;;;;;;;;-147.53;100.00;59759.91;5055034;28;19928;-83
2022/02/20 07:34:24;;;;;;;;;;;;;;;-147.53;100.00;59759.91;5037657;28;19917;-83
2022/02/20 07:36:49;;;;;;;;;;;;;;;-147.53;100.00;59759.91;5055123;28;19917;-83
2022/02/20 07:39:15;;;;;;;;;;;;;;;-147.53;100.00;59759.91;5037295;28;19971;-81
2022/02/20 07:41:40;;;;;;;;;;;;;;;-147.53;100.00;59759.91;5037554;28;19917;-84
2022/02/20 07:44:05;;;;;;;;;;;;;;;-147.53;100.00;59759.91;5037252;28;20019;-82
2022/02/20 07:46:31;;;;;;;;;;;;;;;-147.53;100.00;59759.91;5036148;28;19920;-82
2022/02/20 07:48:59;;;;;;;;;;;;;;;-147.53;100.00;59759.91;5037594;28;19985;-84
2022/02/20 07:51:24;;;;;;;;;;;;;;;-147.53;100.00;59759.91;5036973;28;19940;-82
2022/02/20 07:53:50;;;;;;;;;;;;;;;-147.53;100.00;59759.91;5054745;28;20268;-82
2022/02/20 07:56:16;;;;;;;;;;;;;;;-147.53;100.00;59759.91;5037055;28;19917;-82
2022/02/20 07:58:42;;;;;;;;;;;;;;;-147.53;100.00;59759.91;5037300;28;19924;-84
2022/02/20 08:01:07;;;;;;;;;;;;;;;-147.53;100.00;59759.91;5037388;28;19917;-83
2022/02/20 08:03:32;;;;;;;;;;;;;;;-147.53;100.00;59759.91;5036976;28;20375;-84
2022/02/20 08:05:59;;;;;;;;;;;;;;;-147.53;100.00;59759.91;5037116;28;19956;-85
2022/02/20 08:08:25;;;;;;;;;;;;;;;-147.53;100.00;59759.91;5054854;28;20015;-83
2022/02/20 08:10:50;;;;;;;;;;;;;;;-147.53;100.00;59759.91;5036625;28;20413;-85
2022/02/20 08:13:18;;;;;;;;;;;;;;;-147.53;100.00;59759.91;5055269;28;19959;-86
2022/02/20 08:15:44;;;;;;;;;;;;;;;-147.53;100.00;59759.91;5037602;28;19964;-87
2022/02/20 08:18:09;;;;;;;;;;;;;;;-147.53;100.00;59759.91;5036685;28;20374;-88
2022/02/20 08:20:34;;;;;;;;;;;;;;;-147.53;100.00;59759.91;5037221;28;19944;-85
2022/02/20 08:22:59;;;;;;;;;;;;;;;-147.53;100.00;59759.91;5054417;28;19921;-84
2022/02/20 08:25:25;;;;;;;;;;;;;;;-147.53;100.00;59759.91;5036332;28;19990;-85
2022/02/20 08:27:50;;;;;;;;;;;;;;;-147.53;100.00;59759.91;5054007;28;20019;-83
2022/02/20 08:30:16;;;;;;;;;;;;;;;-147.53;100.00;59759.91;5036196;28;20289;-82
2022/02/20 08:32:41;;;;;;;;;;;;;;;-147.53;100.00;59759.91;5036000;28;19998;-83
2022/02/20 08:35:11;;;;;;;;;;;;;;;-147.53;100.00;59759.91;5036281;28;20366;-83
2022/02/20 08:37:36;;;;;;;;;;;;;;;-147.53;100.00;59759.91;5036117;28;20247;-83
2022/02/20 08:40:03;;;;;;;;;;;;;;;-147.53;100.00;59759.91;5035764;28;19999;-84
2022/02/20 08:42:28;;;;;;;;;;;;;;;-147.53;100.00;59759.91;5035876;28;19924;-82
2022/02/20 08:44:54;;;;;;;;;;;;;;;-147.53;100.00;59759.91;5053611;28;20295;-84
2022/02/20 08:47:19;;;;;;;;;;;;;;;-147.53;100.00;59759.91;5035842;28;19932;-82
2022/02/20 08:49:44;;;;;;;;;;;;;;;-147.53;100.00;59759.91;5037158;28;19920;-86
2022/02/20 08:52:11;;;;;;;;;;;;;;;-147.53;100.00;59759.91;5037083;28;20332;-82
2022/02/20 08:54:37;;;;;;;;;;;;;;;-147.53;100.00;59759.91;5036209;28;19916;-88
2022/02/20 08:57:07;;;;;;;;;;;;;;;-147.53;100.00;59759.91;5035552;28;20011;-83
2022/02/20 08:59:32;;;;;;;;;;;;;;;-147.53;100.00;59759.91;5054211;28;19920;-83
2022/02/20 09:01:57;;;;;;;;;;;;;;;-147.53;100.00;59759.91;5035892;28;19917;-86
2022/02/20 09:04:23;;;;;;;;;;;;;;;-147.53;100.00;59759.91;5055151;28;19917;-83
2022/02/20 09:06:48;;;;;;;;;;;;;;;-147.53;100.00;59759.91;5055196;28;19917;-89
2022/02/20 09:09:13;;;;;;;;;;;;;;;-147.53;100.00;59759.91;5035905;28;19917;-85
2022/02/20 09:11:39;;;;;;;;;;;;;;;-147.53;100.00;59759.91;5036293;28;19933;-83
2022/02/20 09:14:05;;;;;;;;;;;;;;;-147.53;100.00;59759.91;5035471;28;19960;-83
2022/02/20 09:16:30;;;;;;;;;;;;;;;-147.53;100.00;59759.91;5035479;28;19971;-87
2022/02/20 09:18:57;;;;;;;;;;;;;;;-147.53;100.00;59759.91;5035940;28;20370;-83
2022/02/20 09:21:22;;;;;;;;;;;;;;;-147.53;100.00;59759.91;5033369;28;20061;-84
2022/02/20 09:23:48;;;;;;;;;;;;;;;-147.53;100.00;59759.91;5053000;28;19976;-83
2022/02/20 09:26:13;;;;;;;;;;;;;;;-147.53;100.00;59759.91;5034979;28;20034;-82
2022/02/20 09:28:39;;;;;;;;;;;;;;;-147.53;100.00;59759.91;5034317;28;19917;-83
2022/02/20 09:31:04;;;;;;;;;;;;;;;-147.53;100.00;59759.91;5051325;28;19948;-83
2022/02/20 09:33:29;;;;;;;;;;;;;;;-147.53;100.00;59759.91;5034200;28;20090;-83
2022/02/20 09:35:54;;;;;;;;;;;;;;;-147.53;100.00;59759.91;5035014;28;20389;-83
2022/02/20 09:38:19;;;;;;;;;;;;;;;-147.53;100.00;59759.91;5051968;28;19928;-83
2022/02/20 09:40:45;;;;;;;;;;;;;;;-147.53;100.00;59759.91;5049221;28;19916;-83
2022/02/20 09:43:14;;;;;;;;;;;;;;;-147.53;100.00;59759.91;5031113;28;20449;-82
2022/02/20 09:45:44;;;;;;;;;;;;;;;-147.53;100.00;59759.91;5049248;28;19956;-83
2022/02/20 09:48:09;;;;;;;;;;;;;;;-147.53;100.00;59759.91;5049280;28;19971;-83
2022/02/20 09:50:34;;;;;;;;;;;;;;;-147.53;100.00;59759.91;5049281;28;19920;-83
2022/02/20 09:52:59;;;;;;;;;;;;;;;-147.53;100.00;59759.91;5049769;28;20393;-82
2022/02/20 09:55:25;;;;;;;;;;;;;;;-147.53;100.00;59759.91;5034330;28;19912;-83
2022/02/20 09:57:50;;;;;;;;;;;;;;;-147.53;100.00;59759.91;5034765;28;19917;-83
2022/02/20 10:00:15;;;;;;;;;;;;;;;-147.53;100.00;59759.91;5052692;28;19917;-83
2022/02/20 10:02:42;;;;;;;;;;;;;;;-147.53;100.00;59759.91;5052776;28;19917;-83
2022/02/20 10:05:18;;;;;;;;;;;;;;;-147.53;100.00;59759.91;5034731;28;20379;-84
2022/02/20 10:07:44;;;;;;;;;;;;;;;-147.53;100.00;59759.91;5034836;28;19924;-83
2022/02/20 10:10:12;;;;;;;;;;;;;;;-147.53;100.00;59759.91;5055181;28;19917;-83
2022/02/20 10:12:37;;;;;;;;;;;;;;;-147.53;100.00;59759.91;5038784;28;20408;-83
2022/02/20 10:15:02;;;;;;;;;;;;;;;-147.53;100.00;59759.91;5038881;28;19917;-83
2022/02/20 10:17:28;;;;;;;;;;;;;;;-147.53;100.00;59759.91;5056438;28;19925;-82
2022/02/20 10:19:56;;;;;;;;;;;;;;;-147.53;100.00;59759.91;5056478;28;19923;-83
2022/02/20 10:22:25;;;;;;;;;;;;;;;-147.53;100.00;59759.91;5038519;28;19912;-83
2022/02/20 10:24:59;;;;;;;;;;;;;;;-147.53;100.00;59759.91;5056323;28;19917;-83
2022/02/20 10:27:25;;;;;;;;;;;;;;;-147.53;100.00;59759.91;5038554;28;19920;-82
2022/02/20 10:30:08;;;;;;;;;;;;;;;-147.53;100.00;59759.91;5038397;28;20016;-82
2022/02/20 10:32:33;;;;;;;;;;;;;;;-147.53;100.00;59759.91;5038656;28;19987;-82
2022/02/20 10:35:09;;;;;;;;;;;;;;;-147.53;100.00;59759.91;5038498;28;20366;-82
2022/02/20 10:37:34;;;;;;;;;;;;;;;-147.53;100.00;59759.91;5038316;28;19917;-82
2022/02/20 10:39:59;;;;;;;;;;;;;;;-147.53;100.00;59759.91;5056309;28;19938;-82
2022/02/20 10:42:26;;;;;;;;;;;;;;;-147.53;100.00;59759.91;5038608;28;19921;-84
2022/02/20 10:44:53;;;;;;;;;;;;;;;-147.53;100.00;59759.91;5056551;28;19921;-82
2022/02/20 10:47:20;;;;;;;;;;;;;;;-147.53;100.00;59759.91;5038031;28;19921;-83
2022/02/20 10:49:45;;;;;;;;;;;;;;;-147.53;100.00;59759.91;5054571;28;19921;-82
2022/02/20 10:52:29;;;;;;;;;;;;;;;-147.53;100.00;59759.91;5055764;28;19917;-82
2022/02/20 10:55:02;;;;;;;;;;;;;;;-147.53;100.00;59759.91;5055681;28;19939;-83
2022/02/20 10:57:32;;;;;;;;;;;;;;;-147.53;100.00;59759.91;5037762;28;20027;-82
2022/02/20 10:59:57;;;;;;;;;;;;;;;-147.53;100.00;59759.91;5055677;28;20310;-82
2022/02/20 11:02:23;;;;;;;;;;;;;;;-147.53;100.00;59759.91;5037643;28;19963;-83
2022/02/20 11:04:48;;;;;;;;;;;;;;;-147.53;100.00;59759.91;5037467;28;19917;-83
2022/02/20 11:07:16;;;;;;;;;;;;;;;-147.53;100.00;59759.91;5037000;28;19970;-83
2022/02/20 11:09:42;;;;;;;;;;;;;;;-147.53;100.00;59759.91;5037322;28;20298;-83
2022/02/20 11:12:07;;;;;;;;;;;;;;;-147.53;100.00;59759.91;5037523;28;19947;-83
2022/02/20 11:14:32;;;;;;;;;;;;;;;-147.53;100.00;59759.91;5037252;28;19921;-83
2022/02/20 11:17:00;;;;;;;;;;;;;;;-147.53;100.00;59759.91;5055132;28;19925;-83
2022/02/20 11:19:27;;;;;;;;;;;;;;;-147.53;100.00;59759.91;5037477;28;20210;-83
2022/02/20 11:21:57;;;;;;;;;;;;;;;-147.53;100.00;59759.91;5053878;28;19916;-83
2022/02/20 11:24:25;;;;;;;;;;;;;;;-147.53;100.00;59759.91;5037876;28;19948;-82
2022/02/20 11:26:51;;;;;;;;;;;;;;;-147.53;100.00;59759.91;5055824;28;20054;-82
2022/02/20 11:29:16;;;;;;;;;;;;;;;-147.53;100.00;59759.91;5037626;28;20348;-83
2022/02/20 11:31:43;;;;;;;;;;;;;;;-147.53;100.00;59759.91;5037468;28;19924;-83
2022/02/20 11:34:09;;;;;;;;;;;;;;;-147.53;100.00;59759.91;5038915;28;19917;-82
2022/02/20 11:36:34;;;;;;;;;;;;;;;-147.53;100.00;59759.91;5053921;28;20020;-83
2022/02/20 11:39:07;;;;;;;;;;;;;;;-147.53;100.00;59759.91;5037438;28;20367;-84
2022/02/20 11:41:32;;;;;;;;;;;;;;;-147.53;100.00;59759.91;5055532;28;20286;-83
2022/02/20 11:44:14;;;;;;;;;;;;;;;-147.53;100.00;59759.91;5037254;28;19917;-82
2022/02/20 11:46:48;;;;;;;;;;;;;;;-147.53;100.00;59759.91;5055478;28;19921;-83
2022/02/20 11:49:17;;;;;;;;;;;;;;;-147.53;100.00;59759.91;5055180;28;19924;-83
2022/02/20 11:51:56;;;;;;;;;;;;;;;-147.53;100.00;59759.91;5036976;28;20003;-83
2022/02/20 11:54:21;;;;;;;;;;;;;;;-147.53;100.00;59759.91;5055350;28;19916;-83
2022/02/20 11:57:05;;;;;;;;;;;;;;;-147.53;100.00;59759.91;5036745;28;19987;-82
2022/02/20 11:59:31;;;;;;;;;;;;;;;-147.53;100.00;59759.91;5036850;28;19917;-83
2022/02/20 12:02:14;;;;;;;;;;;;;;;-147.53;100.00;59759.91;5036207;28;19939;-83
2022/02/20 12:04:53;;;;;;;;;;;;;;;-147.53;100.00;59759.91;5054256;28;19924;-82
2022/02/20 12:07:28;;;;;;;;;;;;;;;-147.53;100.00;59759.91;5036373;28;20019;-82
2022/02/20 12:10:13;;;;;;;;;;;;;;;-147.53;100.00;59759.91;5036324;28;19924;-82
2022/02/20 12:12:38;;;;;;;;;;;;;;;-147.53;100.00;59759.91;5036322;28;19916;-83